createdAt,value
2018-03-31T00:00:56.982Z,70.19
2018-03-31T00:03:23.848Z,71.30
2018-03-31T00:05:50.714Z,71.58
2018-03-31T00:08:17.596Z,71.75
2018-03-31T00:10:44.478Z,71.67
2018-03-31T00:13:11.350Z,71.81
2018-03-31T00:15:38.219Z,71.00
2018-03-31T00:18:05.150Z,72.11
2018-03-31T00:20:31.994Z,72.25
2018-03-31T00:22:58.867Z,72.02
2018-03-31T00:25:26.082Z,72.39
2018-03-31T00:27:52.965Z,72.71
2018-03-31T00:30:19.838Z,72.21
2018-03-31T00:32:46.721Z,72.41
2018-03-31T00:35:13.593Z,73.38
2018-03-31T00:37:40.484Z,72.88
2018-03-31T00:40:07.349Z,73.00
2018-03-31T00:42:34.419Z,72.15
2018-03-31T00:45:01.299Z,72.42
2018-03-31T00:47:28.281Z,72.37
2018-03-31T00:49:55.177Z,72.64
2018-03-31T00:52:22.193Z,72.34
2018-03-31T00:54:49.071Z,72.71
2018-03-31T00:57:15.954Z,73.42
2018-03-31T00:59:42.814Z,72.98
2018-03-31T01:02:09.797Z,73.29
2018-03-31T01:04:36.666Z,73.34
2018-03-31T01:07:03.542Z,74.16
2018-03-31T01:09:30.417Z,74.05
2018-03-31T01:11:57.326Z,74.00
2018-03-31T01:14:24.193Z,74.27
2018-03-31T01:16:51.063Z,73.63
2018-03-31T01:19:17.941Z,73.81
2018-03-31T01:21:44.813Z,74.04
2018-03-31T01:24:11.704Z,73.74
2018-03-31T01:26:38.565Z,74.77
2018-03-31T01:29:05.445Z,73.58
2018-03-31T01:31:32.315Z,74.32
2018-03-31T01:33:59.177Z,74.80
2018-03-31T01:36:26.048Z,74.40
2018-03-31T01:38:52.917Z,73.89
2018-03-31T01:41:19.801Z,74.15
2018-03-31T01:43:46.670Z,73.99
2018-03-31T01:46:13.558Z,74.50
2018-03-31T01:48:40.427Z,75.05
2018-03-31T01:51:07.310Z,75.07
2018-03-31T01:53:34.177Z,74.66
2018-03-31T01:56:01.073Z,74.75
2018-03-31T01:58:27.965Z,74.11
2018-03-31T02:00:54.983Z,74.09
2018-03-31T02:03:21.902Z,74.53
2018-03-31T02:05:48.802Z,74.20
2018-03-31T02:08:15.680Z,74.79
2018-03-31T02:10:42.565Z,74.38
2018-03-31T02:13:09.437Z,74.08
2018-03-31T02:15:36.312Z,75.23
2018-03-31T02:18:03.293Z,74.49
2018-03-31T02:20:30.178Z,74.95
2018-03-31T02:22:57.062Z,75.29
2018-03-31T02:25:23.986Z,74.80
2018-03-31T02:27:50.907Z,74.59
2018-03-31T02:30:17.868Z,74.82
2018-03-31T02:32:44.791Z,74.49
2018-03-31T02:35:11.642Z,74.14
2018-03-31T02:37:38.510Z,73.91
2018-03-31T02:40:05.393Z,74.83
2018-03-31T02:42:32.263Z,74.31
2018-03-31T02:44:59.154Z,75.18
2018-03-31T02:47:26.028Z,75.37
2018-03-31T02:49:52.947Z,74.92
2018-03-31T02:52:19.818Z,74.77
2018-03-31T02:54:46.714Z,75.34
2018-03-31T02:57:13.621Z,75.30
2018-03-31T02:59:40.486Z,75.21
2018-03-31T03:02:07.360Z,75.56
2018-03-31T03:04:34.231Z,75.14
2018-03-31T03:07:01.116Z,75.38
2018-03-31T03:09:28.006Z,75.36
2018-03-31T03:11:54.910Z,75.32
2018-03-31T03:14:21.835Z,75.40
2018-03-31T03:16:48.713Z,75.53
2018-03-31T03:19:15.593Z,75.77
2018-03-31T03:21:42.478Z,75.60
2018-03-31T03:24:09.352Z,75.48
2018-03-31T03:26:36.227Z,75.38
2018-03-31T03:29:03.090Z,75.41
2018-03-31T03:31:30.013Z,75.99
2018-03-31T03:33:56.917Z,76.32
2018-03-31T03:36:23.895Z,76.52
2018-03-31T03:38:51.167Z,76.09
2018-03-31T03:41:18.037Z,77.38
2018-03-31T03:43:45.011Z,76.59
2018-03-31T03:46:11.872Z,76.43
2018-03-31T03:48:38.751Z,76.59
2018-03-31T03:51:05.628Z,76.75
2018-03-31T03:53:32.505Z,77.21
2018-03-31T03:55:59.393Z,77.24
2018-03-31T03:58:26.262Z,77.81
2018-03-31T04:00:53.124Z,77.69
2018-03-31T04:03:20.238Z,77.47
2018-03-31T04:05:47.106Z,77.38
2018-03-31T04:08:13.970Z,77.47
2018-03-31T04:10:40.850Z,77.31
2018-03-31T04:13:07.714Z,77.32
2018-03-31T04:15:34.606Z,77.15
2018-03-31T04:18:01.477Z,76.89
2018-03-31T04:20:28.345Z,76.86
2018-03-31T04:22:55.230Z,76.47
2018-03-31T04:25:22.118Z,76.62
2018-03-31T04:27:49.002Z,76.57
2018-03-31T04:30:15.873Z,76.99
2018-03-31T04:32:42.761Z,76.48
2018-03-31T04:35:09.645Z,76.23
2018-03-31T04:37:36.510Z,76.43
2018-03-31T04:40:03.390Z,76.60
2018-03-31T04:42:30.277Z,76.46
2018-03-31T04:44:57.186Z,76.76
2018-03-31T04:47:24.096Z,77.51
2018-03-31T04:49:50.984Z,77.42
2018-03-31T04:52:17.892Z,77.22
2018-03-31T04:54:44.756Z,77.30
2018-03-31T04:57:11.635Z,77.43
2018-03-31T04:59:38.517Z,77.30
2018-03-31T05:02:05.382Z,76.83
2018-03-31T05:04:32.270Z,77.12
2018-03-31T05:06:59.176Z,77.03
2018-03-31T05:09:26.083Z,77.05
2018-03-31T05:11:53.013Z,77.27
2018-03-31T05:14:19.888Z,77.18
2018-03-31T05:16:46.749Z,77.14
2018-03-31T05:19:13.636Z,77.24
2018-03-31T05:21:40.498Z,77.00
2018-03-31T05:24:07.384Z,77.00
2018-03-31T05:26:34.249Z,77.17
2018-03-31T05:29:01.138Z,76.94
2018-03-31T05:31:28.014Z,76.92
2018-03-31T05:33:54.893Z,77.69
2018-03-31T05:36:21.764Z,78.00
2018-03-31T05:38:48.637Z,78.19
2018-03-31T05:41:15.532Z,78.08
2018-03-31T05:43:42.407Z,78.28
2018-03-31T05:46:09.269Z,77.80
2018-03-31T05:48:36.153Z,78.37
2018-03-31T05:51:03.019Z,77.61
2018-03-31T05:53:29.878Z,77.70
2018-03-31T05:55:56.761Z,78.38
2018-03-31T05:58:23.623Z,78.33
2018-03-31T06:00:50.541Z,78.49
2018-03-31T06:03:17.409Z,78.92
2018-03-31T06:05:44.291Z,78.74
2018-03-31T06:08:11.158Z,79.36
2018-03-31T06:10:38.054Z,79.01
2018-03-31T06:13:04.920Z,78.57
2018-03-31T06:15:31.792Z,78.35
2018-03-31T06:17:58.678Z,78.73
2018-03-31T06:20:25.563Z,78.39
2018-03-31T06:22:52.421Z,78.12
2018-03-31T06:25:19.315Z,78.24
2018-03-31T06:27:46.172Z,78.39
2018-03-31T06:30:13.058Z,78.01
2018-03-31T06:32:39.922Z,77.45
2018-03-31T06:35:06.799Z,77.51
2018-03-31T06:37:33.681Z,77.20
2018-03-31T06:40:00.561Z,76.80
2018-03-31T06:42:27.429Z,76.10
2018-03-31T06:44:54.310Z,75.70
2018-03-31T06:47:21.190Z,75.18
2018-03-31T06:49:48.069Z,74.95
2018-03-31T06:52:14.960Z,74.74
2018-03-31T06:54:41.871Z,74.20
2018-03-31T06:57:08.717Z,74.39
2018-03-31T06:59:35.589Z,73.97
2018-03-31T07:02:02.474Z,73.97
2018-03-31T07:04:29.353Z,73.32
2018-03-31T07:06:56.238Z,72.69
2018-03-31T07:09:23.109Z,72.15
2018-03-31T07:11:49.994Z,72.18
2018-03-31T07:14:16.867Z,71.15
2018-03-31T07:16:43.721Z,70.55
2018-03-31T07:19:10.610Z,71.03
2018-03-31T07:21:47.606Z,70.08
2018-03-31T07:24:14.473Z,70.45
2018-03-31T07:26:41.341Z,68.97
2018-03-31T07:29:08.229Z,68.97
2018-03-31T07:31:35.099Z,68.67
2018-03-31T07:34:01.977Z,67.90
2018-03-31T07:36:28.861Z,65.79
2018-03-31T07:38:55.753Z,65.81
2018-03-31T07:41:22.625Z,64.22
2018-03-31T07:43:49.495Z,64.14
2018-03-31T07:46:16.374Z,63.34
2018-03-31T07:48:43.246Z,63.36
2018-03-31T07:51:10.131Z,63.24
2018-03-31T07:53:36.993Z,64.45
2018-03-31T07:56:03.881Z,63.90
2018-03-31T07:58:30.761Z,63.41
2018-03-31T08:00:57.763Z,63.06
2018-03-31T08:03:24.613Z,63.28
2018-03-31T08:05:51.542Z,62.95
2018-03-31T08:08:18.430Z,60.50
2018-03-31T08:10:45.302Z,61.07
2018-03-31T08:13:12.195Z,61.56
2018-03-31T08:15:39.069Z,62.37
2018-03-31T08:18:05.954Z,61.10
2018-03-31T08:20:32.826Z,61.71
2018-03-31T08:22:59.709Z,62.39
2018-03-31T08:25:26.582Z,62.77
2018-03-31T08:27:53.458Z,63.07
2018-03-31T08:30:20.336Z,62.72
2018-03-31T08:32:47.218Z,63.35
2018-03-31T08:35:14.110Z,64.64
2018-03-31T08:37:41.060Z,63.28
2018-03-31T08:40:07.921Z,62.58
2018-03-31T08:42:34.802Z,62.80
2018-03-31T08:45:01.673Z,63.14
2018-03-31T08:47:28.594Z,62.82
2018-03-31T08:49:55.514Z,62.05
2018-03-31T08:52:22.443Z,62.50
2018-03-31T08:54:49.332Z,62.07
2018-03-31T08:57:16.217Z,62.01
2018-03-31T08:59:43.106Z,62.54
2018-03-31T09:02:09.997Z,62.71
2018-03-31T09:04:36.866Z,62.49
2018-03-31T09:07:03.756Z,62.85
2018-03-31T09:09:30.622Z,64.68
2018-03-31T09:11:57.506Z,64.82
2018-03-31T09:14:24.374Z,63.41
2018-03-31T09:16:51.258Z,63.24
2018-03-31T09:19:18.131Z,62.26
2018-03-31T09:21:45.022Z,60.76
2018-03-31T09:24:11.886Z,60.99
2018-03-31T09:26:38.770Z,61.11
2018-03-31T09:29:05.661Z,60.01
2018-03-31T09:31:32.529Z,59.64
2018-03-31T09:33:59.405Z,60.71
2018-03-31T09:36:26.272Z,59.85
2018-03-31T09:38:53.169Z,60.05
2018-03-31T09:41:20.030Z,59.62
2018-03-31T09:43:46.934Z,59.84
2018-03-31T09:46:13.810Z,59.14
2018-03-31T09:48:40.693Z,59.80
2018-03-31T09:51:07.562Z,59.83
2018-03-31T09:53:34.446Z,59.72
2018-03-31T09:56:01.381Z,59.62
2018-03-31T09:58:28.355Z,60.23
2018-03-31T10:01:00.881Z,60.68
2018-03-31T10:03:27.757Z,61.16
2018-03-31T10:05:54.679Z,61.08
2018-03-31T10:08:21.519Z,61.37
2018-03-31T10:10:48.397Z,61.02
2018-03-31T10:13:15.385Z,60.57
2018-03-31T10:15:42.298Z,59.84
2018-03-31T10:18:09.173Z,60.27
2018-03-31T10:20:36.062Z,60.34
2018-03-31T10:23:02.993Z,59.59
2018-03-31T10:25:29.877Z,59.30
2018-03-31T10:27:56.751Z,59.12
2018-03-31T10:30:23.914Z,59.10
2018-03-31T10:32:50.830Z,59.05
2018-03-31T10:35:17.707Z,57.66
2018-03-31T10:37:44.589Z,56.67
2018-03-31T10:40:11.491Z,56.07
2018-03-31T10:42:38.651Z,56.29
2018-03-31T10:45:05.502Z,56.98
2018-03-31T10:47:32.422Z,56.55
2018-03-31T10:49:59.346Z,55.26
2018-03-31T10:52:26.262Z,56.55
2018-03-31T10:54:53.157Z,55.78
2018-03-31T10:57:20.080Z,56.47
2018-03-31T10:59:47.019Z,55.91
2018-03-31T11:02:13.887Z,56.06
2018-03-31T11:04:40.773Z,55.70
2018-03-31T11:07:07.656Z,55.41
2018-03-31T11:09:34.536Z,55.82
2018-03-31T11:12:01.421Z,55.21
2018-03-31T11:14:28.312Z,55.20
2018-03-31T11:16:55.188Z,55.16
2018-03-31T11:19:22.069Z,55.95
2018-03-31T11:21:48.945Z,56.06
2018-03-31T11:24:15.828Z,56.72
2018-03-31T11:26:42.685Z,57.58
2018-03-31T11:29:09.569Z,56.23
2018-03-31T11:31:36.440Z,55.34
2018-03-31T11:34:03.323Z,55.49
2018-03-31T11:36:30.198Z,55.73
2018-03-31T11:38:57.082Z,55.08
2018-03-31T11:41:23.946Z,54.47
2018-03-31T11:43:50.826Z,53.67
2018-03-31T11:46:17.706Z,54.24
2018-03-31T11:48:44.599Z,54.51
2018-03-31T11:51:11.482Z,54.47
2018-03-31T11:53:38.362Z,55.10
2018-03-31T11:56:05.250Z,54.65
2018-03-31T11:58:33.610Z,53.22
2018-03-31T12:01:06.878Z,52.87
2018-03-31T12:03:33.790Z,53.55
2018-03-31T12:06:00.669Z,53.38
2018-03-31T12:08:27.572Z,52.41
2018-03-31T12:10:54.556Z,52.35
2018-03-31T12:13:21.572Z,52.27
2018-03-31T12:15:48.511Z,51.67
2018-03-31T12:18:15.374Z,51.58
2018-03-31T12:20:42.274Z,51.34
2018-03-31T12:23:09.157Z,51.60
2018-03-31T12:25:37.234Z,51.96
2018-03-31T12:28:04.105Z,51.46
2018-03-31T12:30:31.010Z,52.50
2018-03-31T12:32:57.896Z,52.23
2018-03-31T12:35:24.759Z,52.69
2018-03-31T12:37:51.645Z,54.29
2018-03-31T12:40:18.552Z,54.41
2018-03-31T12:42:45.440Z,54.34
2018-03-31T12:45:12.305Z,53.22
2018-03-31T12:47:39.175Z,54.05
2018-03-31T12:50:06.065Z,54.51
2018-03-31T12:52:33.009Z,53.82
2018-03-31T12:54:59.985Z,54.40
2018-03-31T12:57:26.969Z,55.13
2018-03-31T12:59:53.875Z,54.88
2018-03-31T13:02:21.514Z,55.06
2018-03-31T13:04:48.424Z,54.96
2018-03-31T13:07:16.070Z,54.82
2018-03-31T13:09:42.956Z,55.78
2018-03-31T13:12:09.844Z,56.65
2018-03-31T13:14:36.723Z,51.59
2018-03-31T13:17:03.597Z,55.73
2018-03-31T13:19:30.522Z,56.97
2018-03-31T13:21:57.390Z,56.10
2018-03-31T13:24:24.282Z,56.45
2018-03-31T13:26:51.173Z,57.40
2018-03-31T13:29:18.071Z,57.44
2018-03-31T13:31:44.958Z,57.25
2018-03-31T13:34:11.856Z,56.99
2018-03-31T13:36:38.758Z,56.59
2018-03-31T13:39:05.643Z,56.60
2018-03-31T13:41:32.618Z,57.38
2018-03-31T13:43:59.585Z,58.63
2018-03-31T13:46:26.534Z,58.70
2018-03-31T13:48:53.544Z,58.13
2018-03-31T13:51:20.462Z,57.74
2018-03-31T13:53:47.359Z,57.75
2018-03-31T13:56:14.295Z,57.96
2018-03-31T13:58:41.204Z,58.26
2018-03-31T14:01:08.078Z,58.92
2018-03-31T14:03:34.987Z,58.34
2018-03-31T14:06:01.850Z,58.78
2018-03-31T14:08:28.773Z,58.56
2018-03-31T14:10:55.642Z,58.67
2018-03-31T14:13:22.528Z,58.76
2018-03-31T14:15:49.410Z,58.60
2018-03-31T14:18:16.297Z,58.34
2018-03-31T14:20:43.189Z,57.97
2018-03-31T14:23:10.133Z,58.10
2018-03-31T14:25:37.870Z,58.49
2018-03-31T14:28:04.754Z,58.82
2018-03-31T14:30:31.637Z,58.54
2018-03-31T14:32:58.510Z,58.83
2018-03-31T14:35:25.590Z,58.71
2018-03-31T14:37:52.501Z,58.79
2018-03-31T14:40:19.400Z,59.38
2018-03-31T14:42:46.279Z,60.05
2018-03-31T14:45:13.176Z,60.30
2018-03-31T14:47:40.037Z,61.09
2018-03-31T14:50:06.917Z,61.49
2018-03-31T14:52:33.962Z,61.83
2018-03-31T14:55:00.837Z,61.84
2018-03-31T14:57:27.777Z,61.75
2018-03-31T14:59:54.757Z,62.29
2018-03-31T15:02:21.636Z,63.12
2018-03-31T15:04:48.509Z,63.96
2018-03-31T15:07:15.408Z,63.50
2018-03-31T15:09:42.273Z,63.51
2018-03-31T15:12:09.157Z,63.61
2018-03-31T15:14:36.034Z,63.77
2018-03-31T15:17:02.934Z,64.10
2018-03-31T15:19:29.859Z,63.89
2018-03-31T15:21:56.740Z,64.07
2018-03-31T15:24:23.609Z,64.15
2018-03-31T15:26:50.489Z,64.79
2018-03-31T15:29:17.369Z,65.16
2018-03-31T15:31:44.256Z,64.38
2018-03-31T15:34:11.113Z,64.95
2018-03-31T15:36:38.004Z,64.94
2018-03-31T15:39:04.876Z,64.76
2018-03-31T15:41:41.295Z,65.03
2018-03-31T15:44:08.619Z,65.24
2018-03-31T15:46:35.538Z,65.07
2018-03-31T15:49:02.367Z,65.46
2018-03-31T15:51:29.318Z,66.12
2018-03-31T15:53:56.223Z,66.57
2018-03-31T15:56:23.159Z,66.51
2018-03-31T15:58:50.041Z,66.31
2018-03-31T16:01:16.966Z,66.29
2018-03-31T16:03:43.941Z,66.03
2018-03-31T16:06:10.821Z,66.74
2018-03-31T16:08:37.686Z,66.49
2018-03-31T16:11:04.575Z,66.59
2018-03-31T16:13:31.474Z,66.46
2018-03-31T16:15:58.455Z,66.58
2018-03-31T16:18:25.390Z,67.30
2018-03-31T16:20:52.309Z,67.22
2018-03-31T16:23:19.198Z,66.75
2018-03-31T16:25:46.065Z,66.76
2018-03-31T16:28:12.956Z,67.06
2018-03-31T16:30:39.819Z,67.05
2018-03-31T16:33:06.700Z,67.35
2018-03-31T16:35:33.565Z,67.64
2018-03-31T16:38:00.490Z,67.53
2018-03-31T16:40:27.359Z,67.77
2018-03-31T16:42:54.239Z,67.65
2018-03-31T16:45:21.110Z,67.44
2018-03-31T16:47:48.002Z,67.83
2018-03-31T16:50:14.883Z,68.31
2018-03-31T16:52:41.757Z,68.46
2018-03-31T16:55:08.628Z,68.64
2018-03-31T16:57:35.509Z,68.52
2018-03-31T17:00:02.433Z,68.04
2018-03-31T17:02:29.374Z,68.32
2018-03-31T17:04:56.263Z,68.18
2018-03-31T17:07:23.170Z,68.33
2018-03-31T17:09:50.065Z,68.37
2018-03-31T17:12:17.746Z,68.48
2018-03-31T17:14:44.625Z,68.58
2018-03-31T17:17:11.589Z,69.00
2018-03-31T17:19:39.247Z,69.42
2018-03-31T17:22:06.125Z,69.07
2018-03-31T17:24:33.080Z,69.16
2018-03-31T17:27:00.014Z,69.55
2018-03-31T17:29:26.942Z,70.21
2018-03-31T17:31:53.908Z,70.37
2018-03-31T17:34:21.471Z,70.77
2018-03-31T17:36:48.443Z,71.01
2018-03-31T17:39:15.287Z,70.75
2018-03-31T17:41:42.155Z,70.47
2018-03-31T17:44:10.126Z,71.15
2018-03-31T17:46:36.989Z,71.23
2018-03-31T17:49:04.172Z,71.76
2018-03-31T17:51:31.868Z,72.17
2018-03-31T17:53:58.852Z,72.12
2018-03-31T17:56:26.324Z,72.27
2018-03-31T17:58:53.490Z,71.78
2018-03-31T18:01:20.381Z,71.48
2018-03-31T18:03:47.274Z,71.77
2018-03-31T18:06:14.169Z,72.62
2018-03-31T18:08:41.165Z,72.67
2018-03-31T18:11:08.075Z,72.08
2018-03-31T18:13:34.958Z,72.26
2018-03-31T18:16:02.752Z,72.18
2018-03-31T18:18:29.666Z,72.03
2018-03-31T18:20:56.754Z,72.10
2018-03-31T18:23:24.662Z,72.41
2018-03-31T18:25:53.683Z,72.55
2018-03-31T18:28:20.562Z,72.44
2018-03-31T18:30:47.486Z,73.01
2018-03-31T18:33:14.919Z,74.08
2018-03-31T18:35:41.795Z,73.57
2018-03-31T18:38:08.672Z,73.78
2018-03-31T18:40:35.561Z,73.69
2018-03-31T18:43:02.494Z,73.52
2018-03-31T18:45:29.479Z,74.15
2018-03-31T18:47:58.435Z,74.10
2018-03-31T18:50:25.405Z,74.91
2018-03-31T18:52:52.514Z,74.34
2018-03-31T18:55:19.400Z,74.35
2018-03-31T18:57:47.475Z,74.94
2018-03-31T19:00:14.349Z,74.78
2018-03-31T19:02:41.223Z,75.31
2018-03-31T19:05:08.726Z,74.54
2018-03-31T19:07:35.765Z,74.21
2018-03-31T19:10:02.622Z,74.18
2018-03-31T19:12:29.685Z,74.99
2018-03-31T19:14:57.746Z,74.89
2018-03-31T19:17:24.633Z,74.14
2018-03-31T19:19:51.695Z,74.28
2018-03-31T19:22:18.615Z,74.54
2018-03-31T19:24:51.042Z,74.37
2018-03-31T19:27:18.359Z,74.22
2018-03-31T19:29:45.227Z,74.09
2018-03-31T19:32:12.139Z,73.58
2018-03-31T19:34:39.261Z,73.61
2018-03-31T19:37:06.138Z,73.50
2018-03-31T19:39:39.737Z,73.25
2018-03-31T19:42:06.609Z,73.22
2018-03-31T19:44:34.646Z,73.61
2018-03-31T19:47:01.573Z,74.08
2018-03-31T19:49:28.438Z,73.61
2018-03-31T19:51:55.709Z,73.14
2018-03-31T19:54:23.354Z,73.06
2018-03-31T19:56:50.219Z,73.16
2018-03-31T19:59:17.680Z,73.45
2018-03-31T20:01:44.558Z,73.05
2018-03-31T20:04:11.427Z,73.09
2018-03-31T20:06:39.499Z,73.14
2018-03-31T20:09:06.367Z,73.33
2018-03-31T20:11:33.549Z,73.44
2018-03-31T20:14:00.458Z,72.73
2018-03-31T20:16:27.346Z,72.39
2018-03-31T20:18:54.344Z,72.65
2018-03-31T20:21:22.736Z,73.07
2018-03-31T20:23:49.672Z,72.47
2018-03-31T20:26:16.677Z,72.12
2018-03-31T20:28:43.572Z,72.27
2018-03-31T20:31:10.429Z,72.17
2018-03-31T20:33:38.509Z,71.88
2018-03-31T20:36:05.365Z,72.00
2018-03-31T20:38:32.254Z,72.25
2018-03-31T20:40:59.150Z,72.21
2018-03-31T20:43:26.090Z,72.32
2018-03-31T20:45:52.998Z,72.09
2018-03-31T20:48:19.898Z,72.56
2018-03-31T20:50:47.009Z,72.12
2018-03-31T20:53:13.952Z,72.26
2018-03-31T20:55:40.815Z,72.79
2018-03-31T20:58:07.697Z,73.05
2018-03-31T21:00:34.605Z,73.09
2018-03-31T21:03:01.471Z,73.15
2018-03-31T21:05:28.448Z,73.88
2018-03-31T21:07:55.356Z,73.63
2018-03-31T21:10:22.279Z,73.60
2018-03-31T21:12:49.158Z,73.97
2018-03-31T21:15:16.051Z,73.80
2018-03-31T21:17:43.486Z,73.38
2018-03-31T21:20:10.362Z,73.03
2018-03-31T21:22:37.235Z,72.61
2018-03-31T21:25:04.876Z,72.60
2018-03-31T21:27:31.754Z,72.31
2018-03-31T21:29:58.679Z,72.25
2018-03-31T21:32:25.590Z,71.74
2018-03-31T21:34:52.744Z,71.61
2018-03-31T21:37:19.664Z,71.09
2018-03-31T21:39:46.606Z,70.95
2018-03-31T21:42:13.589Z,70.92
2018-03-31T21:44:40.450Z,71.13
2018-03-31T21:47:07.356Z,71.30
2018-03-31T21:49:34.220Z,71.25
2018-03-31T21:52:01.102Z,71.36
2018-03-31T21:54:27.993Z,71.83
2018-03-31T21:56:54.956Z,72.32
2018-03-31T21:59:21.803Z,72.82
2018-03-31T22:01:48.694Z,72.59
2018-03-31T22:04:15.565Z,72.46
2018-03-31T22:06:42.450Z,72.36
2018-03-31T22:09:09.324Z,72.49
2018-03-31T22:11:36.202Z,71.89
2018-03-31T22:14:08.833Z,71.79
2018-03-31T22:16:35.719Z,72.11
2018-03-31T22:19:02.578Z,72.25
2018-03-31T22:21:29.453Z,72.08
2018-03-31T22:23:56.358Z,72.07
2018-03-31T22:26:23.256Z,71.98
2018-03-31T22:28:50.126Z,72.17
2018-03-31T22:31:17.026Z,72.00
2018-03-31T22:33:43.924Z,71.78
2018-03-31T22:36:10.788Z,71.81
2018-03-31T22:38:37.674Z,71.46
2018-03-31T22:41:04.550Z,71.92
2018-03-31T22:43:31.429Z,71.54
2018-03-31T22:45:58.344Z,72.04
2018-03-31T22:48:25.229Z,72.63
2018-03-31T22:50:52.132Z,72.78
2018-03-31T22:53:19.022Z,72.53
2018-03-31T22:55:45.915Z,72.29
2018-03-31T22:58:12.790Z,72.24
2018-03-31T23:00:39.657Z,72.76
2018-03-31T23:03:06.534Z,72.72
2018-03-31T23:05:33.449Z,72.58
2018-03-31T23:08:00.273Z,72.88
2018-03-31T23:10:27.162Z,72.88
2018-03-31T23:12:54.042Z,72.86
2018-03-31T23:15:20.913Z,72.82
2018-03-31T23:17:47.782Z,73.06
2018-03-31T23:20:14.657Z,73.39
2018-03-31T23:22:41.539Z,72.99
2018-03-31T23:25:08.422Z,72.63
2018-03-31T23:27:35.289Z,72.46
2018-03-31T23:30:02.506Z,72.61
2018-03-31T23:32:29.392Z,72.86
2018-03-31T23:34:56.295Z,73.08
2018-03-31T23:37:23.193Z,72.81
2018-03-31T23:39:50.067Z,72.75
2018-03-31T23:42:16.964Z,73.05
2018-03-31T23:44:43.864Z,73.44
2018-03-31T23:47:10.746Z,73.74
2018-03-31T23:49:37.609Z,73.34
2018-03-31T23:52:04.773Z,73.47
2018-03-31T23:54:31.646Z,73.40
2018-03-31T23:56:58.533Z,73.18
2018-03-31T23:59:25.413Z,73.36
